RUK1104 LEPA-EGCC
Flight info
| Callsign | RUK1104 |
|---|---|
| Flight time | 2h 16m |
| Altitude | 34000 |
| Route | DRAGO DCT PAPOS DCT UMURE N863 GIROM DCT AGN DCT SECHE DCT UVELI DCT CNA DCT TUPAR UN861 ANG DCT AKIKI UN867 AVANT UM184 HEMEL T420 ELVOS |
| Aircraft | B738/M-SDE2E3FGHIRWXY/LB1 |
Departure
| Time | 2026-05-04 06:16 |
|---|---|
| Airport | Palma de Mallorca Airport (LEPA) |
Arrival
| Time | 2026-05-04 08:33 |
|---|---|
| Airport | Manchester Airport (EGCC) |
| Time | Latitude | Longitude | Altitude | Speed | Heading |
|---|---|---|---|---|---|
| 2026-05-04 06:05 | 39.55204 | 2.73110 | 37 ft | 0 kts | 148° |
| 2026-05-04 06:07 | 39.55206 | 2.73109 | 37 ft | 2 kts | 148° |
| 2026-05-04 06:07 | 39.55225 | 2.73092 | 37 ft | 4 kts | 138° |
| 2026-05-04 06:08 | 39.55241 | 2.73069 | 36 ft | 4 kts | 121° |
| 2026-05-04 06:08 | 39.55249 | 2.73043 | 37 ft | 4 kts | 78° |
| 2026-05-04 06:08 | 39.55246 | 2.73032 | 37 ft | 0 kts | 56° |
| 2026-05-04 06:13 | 39.55615 | 2.73418 | 37 ft | 22 kts | 60° |
| 2026-05-04 06:14 | 39.56142 | 2.74337 | 36 ft | 0 kts | 27° |
| 2026-05-04 06:14 | 39.56143 | 2.74337 | 36 ft | 1 kts | 27° |
| 2026-05-04 06:15 | 39.56166 | 2.74348 | 37 ft | 6 kts | 13° |
| 2026-05-04 06:15 | 39.56219 | 2.74320 | 36 ft | 11 kts | 306° |
| 2026-05-04 06:15 | 39.56200 | 2.74209 | 37 ft | 16 kts | 238° |
| 2026-05-04 06:15 | 39.56119 | 2.74035 | 37 ft | 44 kts | 239° |
| 2026-05-04 06:16 | 39.55834 | 2.73434 | 36 ft | 111 kts | 239° |
| 2026-05-04 06:16 | 39.55322 | 2.72372 | 56 ft | 164 kts | 237° |
| 2026-05-04 06:16 | 39.54699 | 2.71103 | 672 ft | 164 kts | 237° |
| 2026-05-04 06:16 | 39.54077 | 2.69842 | 1448 ft | 168 kts | 236° |
| 2026-05-04 06:17 | 39.53387 | 2.68459 | 1771 ft | 196 kts | 236° |
| 2026-05-04 06:17 | 39.52625 | 2.66946 | 2178 ft | 208 kts | 236° |
| 2026-05-04 06:17 | 39.51834 | 2.65373 | 2818 ft | 209 kts | 236° |
| 2026-05-04 06:17 | 39.51031 | 2.63784 | 3383 ft | 214 kts | 236° |
| 2026-05-04 06:18 | 39.50203 | 2.62145 | 3933 ft | 218 kts | 236° |
| 2026-05-04 06:18 | 39.49381 | 2.60526 | 4656 ft | 214 kts | 235° |
| 2026-05-04 06:18 | 39.48550 | 2.58910 | 5225 ft | 218 kts | 235° |
| 2026-05-04 06:20 | 39.47293 | 2.46601 | 8545 ft | 281 kts | 322° |
| 2026-05-04 06:20 | 39.48933 | 2.45161 | 9190 ft | 287 kts | 322° |
| 2026-05-04 06:21 | 39.55758 | 2.38666 | 11084 ft | 329 kts | 313° |
| 2026-05-04 06:21 | 39.57385 | 2.36569 | 11740 ft | 331 kts | 310° |
| 2026-05-04 06:22 | 39.58957 | 2.34384 | 12496 ft | 332 kts | 308° |
| 2026-05-04 06:22 | 39.60524 | 2.32174 | 13268 ft | 334 kts | 308° |
| 2026-05-04 06:25 | 39.82496 | 2.01894 | 21306 ft | 379 kts | 307° |
| 2026-05-04 06:25 | 39.84312 | 1.99394 | 21875 ft | 382 kts | 307° |
| 2026-05-04 06:26 | 39.86145 | 1.96869 | 22403 ft | 385 kts | 307° |
| 2026-05-04 06:26 | 39.87987 | 1.94329 | 22911 ft | 388 kts | 307° |
| 2026-05-04 06:26 | 39.89851 | 1.91757 | 23415 ft | 392 kts | 307° |
| 2026-05-04 06:26 | 39.91726 | 1.89167 | 23871 ft | 395 kts | 307° |
| 2026-05-04 06:27 | 39.99334 | 1.78637 | 25638 ft | 403 kts | 307° |
| 2026-05-04 06:28 | 40.01511 | 1.76247 | 26003 ft | 420 kts | 323° |
| 2026-05-04 06:28 | 40.04215 | 1.74655 | 26425 ft | 431 kts | 331° |
| 2026-05-04 06:28 | 40.07027 | 1.73234 | 26801 ft | 435 kts | 332° |
| 2026-05-04 06:28 | 40.09859 | 1.71834 | 27162 ft | 438 kts | 332° |
| 2026-05-04 06:29 | 40.12718 | 1.70418 | 27546 ft | 440 kts | 332° |
| 2026-05-04 06:29 | 40.15583 | 1.68981 | 27929 ft | 442 kts | 331° |
| 2026-05-04 06:29 | 40.18457 | 1.67523 | 28294 ft | 444 kts | 331° |
| 2026-05-04 06:29 | 40.21337 | 1.66048 | 28654 ft | 446 kts | 330° |
| 2026-05-04 06:30 | 40.24235 | 1.64556 | 29028 ft | 449 kts | 330° |
| 2026-05-04 06:30 | 40.27149 | 1.63051 | 29345 ft | 451 kts | 330° |
| 2026-05-04 06:30 | 40.30035 | 1.61558 | 29703 ft | 453 kts | 330° |
| 2026-05-04 06:30 | 40.32963 | 1.60045 | 30179 ft | 451 kts | 330° |
| 2026-05-04 06:31 | 40.35870 | 1.58544 | 30642 ft | 448 kts | 330° |
| 2026-05-04 06:31 | 40.38763 | 1.57048 | 31075 ft | 446 kts | 330° |
| 2026-05-04 06:31 | 40.41649 | 1.55552 | 31449 ft | 445 kts | 330° |
| 2026-05-04 06:31 | 40.44525 | 1.54058 | 31807 ft | 445 kts | 330° |
| 2026-05-04 06:32 | 40.47399 | 1.52564 | 32232 ft | 444 kts | 330° |
| 2026-05-04 06:33 | 40.67473 | 1.42094 | 33983 ft | 447 kts | 330° |
| 2026-05-04 06:34 | 40.72297 | 1.39580 | 33966 ft | 441 kts | 330° |
| 2026-05-04 06:34 | 40.77940 | 1.36634 | 33983 ft | 439 kts | 330° |
| 2026-05-04 06:36 | 41.00755 | 1.24634 | 33995 ft | 444 kts | 330° |
| 2026-05-04 06:37 | 41.06497 | 1.21602 | 33997 ft | 445 kts | 330° |
| 2026-05-04 06:37 | 41.12245 | 1.18562 | 33995 ft | 445 kts | 330° |
| 2026-05-04 06:38 | 41.18350 | 1.16550 | 34003 ft | 463 kts | 348° |
| 2026-05-04 06:40 | 41.44031 | 1.14072 | 34003 ft | 462 kts | 348° |
| 2026-05-04 06:40 | 41.50446 | 1.13410 | 34007 ft | 462 kts | 348° |
| 2026-05-04 06:41 | 41.56862 | 1.12738 | 34014 ft | 463 kts | 348° |
| 2026-05-04 06:41 | 41.63286 | 1.12023 | 34003 ft | 463 kts | 348° |
| 2026-05-04 06:42 | 41.69708 | 1.11310 | 33996 ft | 463 kts | 348° |
| 2026-05-04 06:44 | 41.95435 | 1.08608 | 33978 ft | 465 kts | 348° |
| 2026-05-04 06:44 | 42.01882 | 1.07926 | 33990 ft | 465 kts | 348° |
| 2026-05-04 06:45 | 42.08343 | 1.07242 | 33986 ft | 466 kts | 348° |
| 2026-05-04 06:45 | 42.14805 | 1.06557 | 33992 ft | 466 kts | 348° |
| 2026-05-04 06:46 | 42.21266 | 1.05853 | 34026 ft | 466 kts | 348° |
| 2026-05-04 06:46 | 42.27737 | 1.05138 | 34028 ft | 466 kts | 348° |
| 2026-05-04 06:48 | 42.53546 | 1.02310 | 34005 ft | 466 kts | 349° |
| 2026-05-04 06:50 | 42.79289 | 0.99505 | 33979 ft | 464 kts | 349° |
| 2026-05-04 06:51 | 42.85719 | 0.98799 | 33982 ft | 464 kts | 349° |
| 2026-05-04 06:51 | 42.92167 | 0.98092 | 33973 ft | 466 kts | 349° |
| 2026-05-04 06:52 | 42.98625 | 0.97382 | 33971 ft | 465 kts | 349° |
| 2026-05-04 06:52 | 43.05028 | 0.96677 | 33982 ft | 464 kts | 349° |
| 2026-05-04 06:53 | 43.11457 | 0.95967 | 33966 ft | 463 kts | 349° |
| 2026-05-04 06:53 | 43.17871 | 0.95257 | 33970 ft | 462 kts | 349° |
| 2026-05-04 06:54 | 43.24279 | 0.94545 | 33977 ft | 462 kts | 350° |
| 2026-05-04 06:54 | 43.30678 | 0.93833 | 33970 ft | 462 kts | 350° |
| 2026-05-04 06:55 | 43.37078 | 0.93120 | 33970 ft | 462 kts | 350° |
| 2026-05-04 06:55 | 43.43492 | 0.92403 | 33977 ft | 462 kts | 350° |
| 2026-05-04 06:57 | 43.69230 | 0.89514 | 33962 ft | 465 kts | 351° |
| 2026-05-04 06:58 | 43.75683 | 0.88786 | 33962 ft | 465 kts | 351° |
| 2026-05-04 06:58 | 43.82140 | 0.88055 | 33959 ft | 466 kts | 351° |
| 2026-05-04 06:59 | 43.88553 | 0.87008 | 33953 ft | 460 kts | 341° |
| 2026-05-04 06:59 | 43.94401 | 0.83889 | 33970 ft | 451 kts | 329° |
| 2026-05-04 07:01 | 44.17159 | 0.68967 | 33942 ft | 453 kts | 329° |
| 2026-05-04 07:02 | 44.22870 | 0.65255 | 33947 ft | 453 kts | 329° |
| 2026-05-04 07:02 | 44.28576 | 0.61534 | 33936 ft | 453 kts | 329° |
| 2026-05-04 07:03 | 44.34276 | 0.57810 | 33945 ft | 452 kts | 329° |
| 2026-05-04 07:03 | 44.39972 | 0.54079 | 33936 ft | 452 kts | 329° |
| 2026-05-04 07:04 | 44.45668 | 0.50339 | 33945 ft | 452 kts | 329° |
| 2026-05-04 07:04 | 44.51353 | 0.46572 | 33937 ft | 452 kts | 329° |
| 2026-05-04 07:05 | 44.57038 | 0.42791 | 33937 ft | 452 kts | 329° |
| 2026-05-04 07:05 | 44.62717 | 0.39008 | 33952 ft | 452 kts | 329° |
| 2026-05-04 07:06 | 44.71247 | 0.33313 | 33948 ft | 452 kts | 329° |
| 2026-05-04 07:07 | 44.76929 | 0.29510 | 33937 ft | 452 kts | 329° |
| 2026-05-04 07:09 | 44.99526 | 0.14297 | 33942 ft | 448 kts | 329° |
| 2026-05-04 07:09 | 45.05156 | 0.10488 | 33941 ft | 449 kts | 329° |
| 2026-05-04 07:10 | 45.10789 | 0.06670 | 33939 ft | 449 kts | 329° |
| 2026-05-04 07:12 | 45.33405 | -0.08740 | 33940 ft | 454 kts | 329° |
| 2026-05-04 07:12 | 45.39089 | -0.12636 | 33951 ft | 454 kts | 329° |
| 2026-05-04 07:13 | 45.44782 | -0.16546 | 33952 ft | 454 kts | 329° |
| 2026-05-04 07:13 | 45.50468 | -0.20459 | 33952 ft | 454 kts | 329° |
| 2026-05-04 07:14 | 45.64601 | -0.30227 | 33966 ft | 452 kts | 329° |
| 2026-05-04 07:15 | 45.70498 | -0.33489 | 33950 ft | 457 kts | 338° |
| 2026-05-04 07:15 | 45.76603 | -0.36123 | 33951 ft | 459 kts | 339° |
| 2026-05-04 07:16 | 45.82723 | -0.38771 | 33932 ft | 459 kts | 339° |
| 2026-05-04 07:16 | 45.88809 | -0.41493 | 33938 ft | 456 kts | 339° |
| 2026-05-04 07:17 | 45.94846 | -0.44235 | 33932 ft | 454 kts | 338° |
| 2026-05-04 07:17 | 46.00850 | -0.46973 | 33941 ft | 452 kts | 338° |
| 2026-05-04 07:18 | 46.06841 | -0.49710 | 33944 ft | 451 kts | 338° |
| 2026-05-04 07:18 | 46.12832 | -0.52450 | 33947 ft | 452 kts | 338° |
| 2026-05-04 07:19 | 46.18830 | -0.55201 | 33960 ft | 453 kts | 339° |
| 2026-05-04 07:19 | 46.24849 | -0.57966 | 33946 ft | 454 kts | 338° |
| 2026-05-04 07:20 | 46.30876 | -0.60742 | 33944 ft | 455 kts | 339° |
| 2026-05-04 07:20 | 46.36922 | -0.63533 | 33959 ft | 456 kts | 339° |
| 2026-05-04 07:22 | 46.57858 | -0.68870 | 33969 ft | 463 kts | 351° |
| 2026-05-04 07:22 | 46.61099 | -0.69373 | 33966 ft | 463 kts | 351° |
| 2026-05-04 07:23 | 46.67502 | -0.70420 | 33952 ft | 463 kts | 351° |
| 2026-05-04 07:23 | 46.73891 | -0.71499 | 33955 ft | 462 kts | 351° |
| 2026-05-04 07:24 | 46.80260 | -0.72581 | 33965 ft | 460 kts | 351° |
| 2026-05-04 07:24 | 46.86616 | -0.73661 | 33962 ft | 459 kts | 351° |
| 2026-05-04 07:26 | 47.11903 | -0.77976 | 33964 ft | 458 kts | 351° |
| 2026-05-04 07:27 | 47.18234 | -0.79063 | 33972 ft | 458 kts | 351° |
| 2026-05-04 07:27 | 47.24564 | -0.80152 | 33965 ft | 458 kts | 351° |
| 2026-05-04 07:28 | 47.30897 | -0.81244 | 33969 ft | 458 kts | 351° |
| 2026-05-04 07:28 | 47.37235 | -0.82340 | 33966 ft | 459 kts | 351° |
| 2026-05-04 07:29 | 47.43579 | -0.83440 | 33997 ft | 459 kts | 351° |
| 2026-05-04 07:29 | 47.49934 | -0.84544 | 33977 ft | 460 kts | 351° |
| 2026-05-04 07:30 | 47.56280 | -0.85754 | 33968 ft | 459 kts | 348° |
| 2026-05-04 07:30 | 47.62534 | -0.87399 | 33976 ft | 458 kts | 346° |
| 2026-05-04 07:31 | 47.68804 | -0.89147 | 33968 ft | 458 kts | 346° |
| 2026-05-04 07:33 | 47.93899 | -0.95895 | 33978 ft | 458 kts | 347° |
| 2026-05-04 07:33 | 48.00159 | -0.97575 | 33971 ft | 458 kts | 347° |
| 2026-05-04 07:34 | 48.06423 | -0.99261 | 33970 ft | 458 kts | 347° |
| 2026-05-04 07:34 | 48.12647 | -1.00940 | 33967 ft | 457 kts | 347° |
| 2026-05-04 07:35 | 48.18910 | -1.02634 | 33975 ft | 457 kts | 347° |
| 2026-05-04 07:35 | 48.25164 | -1.04330 | 33977 ft | 457 kts | 347° |
| 2026-05-04 07:36 | 48.31424 | -1.06032 | 33978 ft | 457 kts | 347° |
| 2026-05-04 07:38 | 48.56448 | -1.12878 | 33981 ft | 457 kts | 347° |
| 2026-05-04 07:38 | 48.62707 | -1.14601 | 33986 ft | 457 kts | 347° |
| 2026-05-04 07:39 | 48.68964 | -1.16328 | 33985 ft | 457 kts | 347° |
| 2026-05-04 07:39 | 48.75226 | -1.18060 | 33991 ft | 457 kts | 347° |
| 2026-05-04 07:40 | 48.81489 | -1.19797 | 33989 ft | 457 kts | 347° |
| 2026-05-04 07:40 | 48.87750 | -1.21538 | 33991 ft | 458 kts | 347° |
| 2026-05-04 07:41 | 48.94018 | -1.23286 | 33997 ft | 458 kts | 347° |
| 2026-05-04 07:41 | 49.00284 | -1.25037 | 33991 ft | 458 kts | 347° |
| 2026-05-04 07:42 | 49.06506 | -1.26781 | 33995 ft | 457 kts | 347° |
| 2026-05-04 07:42 | 49.12764 | -1.28539 | 33995 ft | 457 kts | 347° |
| 2026-05-04 07:43 | 49.19013 | -1.30299 | 34002 ft | 457 kts | 347° |
| 2026-05-04 07:43 | 49.25171 | -1.32037 | 33999 ft | 457 kts | 347° |
| 2026-05-04 07:44 | 49.31418 | -1.33807 | 34026 ft | 457 kts | 347° |
| 2026-05-04 07:44 | 49.37678 | -1.35584 | 34007 ft | 457 kts | 347° |
| 2026-05-04 07:45 | 49.43929 | -1.37362 | 33995 ft | 457 kts | 347° |
| 2026-05-04 07:45 | 49.50184 | -1.39147 | 33998 ft | 457 kts | 347° |
| 2026-05-04 07:46 | 49.56430 | -1.40933 | 34002 ft | 457 kts | 347° |
| 2026-05-04 07:46 | 49.62766 | -1.41597 | 34007 ft | 458 kts | 2° |
| 2026-05-04 07:47 | 49.69130 | -1.40921 | 33993 ft | 459 kts | 3° |
| 2026-05-04 07:49 | 49.94519 | -1.38500 | 34004 ft | 458 kts | 2° |
| 2026-05-04 07:49 | 50.00878 | -1.37874 | 34005 ft | 458 kts | 5° |
| 2026-05-04 07:50 | 50.07181 | -1.36453 | 33982 ft | 458 kts | 9° |
| 2026-05-04 07:50 | 50.13466 | -1.34751 | 34001 ft | 458 kts | 9° |
| 2026-05-04 07:51 | 50.19752 | -1.33123 | 34009 ft | 459 kts | 8° |
| 2026-05-04 07:51 | 50.26061 | -1.31551 | 34008 ft | 460 kts | 8° |
| 2026-05-04 07:52 | 50.32380 | -1.29984 | 33999 ft | 460 kts | 8° |
| 2026-05-04 07:52 | 50.38709 | -1.28406 | 34000 ft | 460 kts | 8° |
| 2026-05-04 07:54 | 50.61413 | -1.14531 | 33997 ft | 458 kts | 33° |
| 2026-05-04 07:55 | 50.66761 | -1.09105 | 34010 ft | 457 kts | 33° |
| 2026-05-04 07:55 | 50.71974 | -1.03878 | 33999 ft | 456 kts | 33° |
| 2026-05-04 07:56 | 50.77072 | -0.98766 | 33998 ft | 455 kts | 33° |
| 2026-05-04 07:56 | 50.82145 | -0.93865 | 33988 ft | 454 kts | 26° |
| 2026-05-04 07:57 | 50.87732 | -0.90589 | 34005 ft | 452 kts | 16° |
| 2026-05-04 07:57 | 50.93258 | -0.87863 | 34008 ft | 453 kts | 16° |
| 2026-05-04 07:58 | 50.99197 | -0.84893 | 34006 ft | 454 kts | 17° |
| 2026-05-04 07:58 | 51.05210 | -0.81802 | 34014 ft | 455 kts | 17° |
| 2026-05-04 07:59 | 51.11230 | -0.78667 | 34020 ft | 456 kts | 17° |
| 2026-05-04 07:59 | 51.17221 | -0.75534 | 34018 ft | 456 kts | 17° |
| 2026-05-04 08:00 | 51.23249 | -0.72376 | 34021 ft | 456 kts | 17° |
| 2026-05-04 08:02 | 51.47215 | -0.59739 | 34011 ft | 448 kts | 17° |
| 2026-05-04 08:02 | 51.53102 | -0.56614 | 34016 ft | 444 kts | 17° |
| 2026-05-04 08:03 | 51.58960 | -0.53496 | 34026 ft | 442 kts | 17° |
| 2026-05-04 08:03 | 51.64790 | -0.50384 | 34020 ft | 441 kts | 17° |
| 2026-05-04 08:04 | 51.70613 | -0.47267 | 34046 ft | 441 kts | 17° |
| 2026-05-04 08:04 | 51.76413 | -0.44161 | 34047 ft | 441 kts | 15° |
| 2026-05-04 08:05 | 51.79401 | -0.43325 | 34003 ft | 433 kts | 356° |
| 2026-05-04 08:05 | 51.82306 | -0.43970 | 33857 ft | 424 kts | 341° |
| 2026-05-04 08:05 | 51.84957 | -0.45880 | 33570 ft | 411 kts | 326° |
| 2026-05-04 08:05 | 51.87336 | -0.48296 | 33185 ft | 407 kts | 324° |
| 2026-05-04 08:06 | 51.89714 | -0.50743 | 32860 ft | 403 kts | 324° |
| 2026-05-04 08:06 | 51.92087 | -0.53124 | 32482 ft | 400 kts | 325° |
| 2026-05-04 08:06 | 51.94458 | -0.55461 | 32140 ft | 397 kts | 325° |
| 2026-05-04 08:06 | 51.96804 | -0.57750 | 31769 ft | 396 kts | 325° |
| 2026-05-04 08:08 | 52.12962 | -0.73553 | 29356 ft | 378 kts | 324° |
| 2026-05-04 08:08 | 52.15196 | -0.75760 | 28962 ft | 377 kts | 324° |
| 2026-05-04 08:10 | 52.32651 | -0.93080 | 26244 ft | 361 kts | 325° |
| 2026-05-04 08:11 | 52.34793 | -0.95209 | 25908 ft | 360 kts | 325° |
| 2026-05-04 08:11 | 52.38949 | -0.99348 | 25263 ft | 358 kts | 325° |
| 2026-05-04 08:11 | 52.41080 | -1.01475 | 24902 ft | 358 kts | 326° |
| 2026-05-04 08:12 | 52.43204 | -1.03596 | 24539 ft | 357 kts | 326° |
| 2026-05-04 08:12 | 52.45327 | -1.05718 | 24177 ft | 357 kts | 325° |
| 2026-05-04 08:12 | 52.46734 | -1.07127 | 23938 ft | 358 kts | 325° |
| 2026-05-04 08:12 | 52.48855 | -1.09252 | 23578 ft | 358 kts | 325° |
| 2026-05-04 08:13 | 52.50981 | -1.11399 | 23109 ft | 359 kts | 325° |
| 2026-05-04 08:13 | 52.53098 | -1.13548 | 22744 ft | 357 kts | 325° |
| 2026-05-04 08:13 | 52.55204 | -1.15688 | 22380 ft | 355 kts | 325° |
| 2026-05-04 08:13 | 52.57283 | -1.17796 | 22056 ft | 353 kts | 325° |
| 2026-05-04 08:14 | 52.59368 | -1.19906 | 21697 ft | 351 kts | 326° |
| 2026-05-04 08:14 | 52.61442 | -1.22005 | 21356 ft | 349 kts | 326° |
| 2026-05-04 08:14 | 52.63502 | -1.24094 | 21018 ft | 348 kts | 326° |
| 2026-05-04 08:16 | 52.77549 | -1.38378 | 18538 ft | 343 kts | 326° |
| 2026-05-04 08:16 | 52.79579 | -1.40449 | 18128 ft | 342 kts | 326° |
| 2026-05-04 08:16 | 52.81574 | -1.42484 | 18053 ft | 331 kts | 326° |
| 2026-05-04 08:17 | 52.83494 | -1.44444 | 18037 ft | 318 kts | 326° |
| 2026-05-04 08:17 | 52.85351 | -1.46343 | 17820 ft | 313 kts | 326° |
| 2026-05-04 08:17 | 52.87211 | -1.48251 | 17351 ft | 315 kts | 326° |
| 2026-05-04 08:17 | 52.89072 | -1.50163 | 16981 ft | 315 kts | 326° |
| 2026-05-04 08:19 | 53.01805 | -1.63279 | 14858 ft | 301 kts | 326° |
| 2026-05-04 08:19 | 53.03580 | -1.65114 | 14568 ft | 300 kts | 327° |
| 2026-05-04 08:20 | 53.05310 | -1.66948 | 14251 ft | 298 kts | 321° |
| 2026-05-04 08:20 | 53.06774 | -1.69340 | 13986 ft | 294 kts | 309° |
| 2026-05-04 08:20 | 53.08072 | -1.71958 | 13653 ft | 293 kts | 308° |
| 2026-05-04 08:20 | 53.09366 | -1.74571 | 13297 ft | 292 kts | 308° |
| 2026-05-04 08:21 | 53.10658 | -1.77130 | 13050 ft | 288 kts | 308° |
| 2026-05-04 08:21 | 53.11951 | -1.79673 | 12713 ft | 288 kts | 309° |
| 2026-05-04 08:21 | 53.13250 | -1.82206 | 12374 ft | 288 kts | 309° |
| 2026-05-04 08:21 | 53.14543 | -1.84722 | 12125 ft | 283 kts | 309° |
| 2026-05-04 08:22 | 53.15814 | -1.87195 | 11686 ft | 280 kts | 309° |
| 2026-05-04 08:22 | 53.17075 | -1.89651 | 11245 ft | 277 kts | 309° |
| 2026-05-04 08:24 | 53.23791 | -2.07306 | 8615 ft | 243 kts | 268° |
| 2026-05-04 08:24 | 53.23691 | -2.10023 | 8527 ft | 226 kts | 266° |
| 2026-05-04 08:24 | 53.23581 | -2.12557 | 8183 ft | 219 kts | 267° |
| 2026-05-04 08:24 | 53.23473 | -2.15090 | 7702 ft | 218 kts | 267° |
| 2026-05-04 08:25 | 53.23372 | -2.17551 | 7505 ft | 203 kts | 267° |
| 2026-05-04 08:25 | 53.23280 | -2.19844 | 7184 ft | 196 kts | 268° |
| 2026-05-04 08:25 | 53.23193 | -2.22114 | 6744 ft | 196 kts | 267° |
| 2026-05-04 08:25 | 53.23107 | -2.24384 | 6327 ft | 195 kts | 267° |
| 2026-05-04 08:26 | 53.23021 | -2.26633 | 5886 ft | 194 kts | 268° |
| 2026-05-04 08:27 | 53.22437 | -2.42174 | 3280 ft | 187 kts | 267° |
| 2026-05-04 08:28 | 53.22355 | -2.44345 | 3090 ft | 190 kts | 267° |
| 2026-05-04 08:28 | 53.22497 | -2.46521 | 3033 ft | 190 kts | 298° |
| 2026-05-04 08:28 | 53.23458 | -2.47875 | 3016 ft | 186 kts | 344° |
| 2026-05-04 08:28 | 53.24718 | -2.47617 | 2744 ft | 185 kts | 33° |
| 2026-05-04 08:29 | 53.25682 | -2.46218 | 2499 ft | 183 kts | 46° |
| 2026-05-04 08:29 | 53.26563 | -2.44725 | 2262 ft | 180 kts | 49° |
| 2026-05-04 08:29 | 53.27358 | -2.43155 | 2026 ft | 172 kts | 51° |
| 2026-05-04 08:31 | 53.31928 | -2.33699 | 648 ft | 146 kts | 51° |
| 2026-05-04 08:33 | 53.34702 | -2.28400 | 229 ft | 20 kts | 33° |
| 2026-05-04 08:33 | 53.34789 | -2.28240 | 230 ft | 18 kts | 51° |
| 2026-05-04 08:35 | 53.35455 | -2.26870 | 253 ft | 20 kts | 51° |
| 2026-05-04 08:35 | 53.35540 | -2.26691 | 259 ft | 19 kts | 48° |
| 2026-05-04 08:35 | 53.35624 | -2.26627 | 266 ft | 9 kts | 358° |
| 2026-05-04 08:35 | 53.35690 | -2.26645 | 268 ft | 10 kts | 348° |
| 2026-05-04 08:37 | 53.35996 | -2.26765 | 254 ft | 4 kts | 304° |
| 2026-05-04 08:37 | 53.36028 | -2.26794 | 254 ft | 6 kts | 339° |
| 2026-05-04 08:37 | 53.36056 | -2.26830 | 254 ft | 3 kts | 314° |
| 2026-05-04 08:38 | 53.36060 | -2.26837 | 254 ft | 0 kts | 313° |